sensor_id;sensor_type;location;lat;lon;timestamp;pressure;altitude;pressure_sealevel;temperature;humidity
58739;BME280;44512;53.046;18.604;2023-04-20T00:04:40;102141.48;;;10.66;67.60
58739;BME280;44512;53.046;18.604;2023-04-20T00:15:09;102138.59;;;10.68;67.58
58739;BME280;44512;53.046;18.604;2023-04-20T00:25:37;102126.73;;;10.69;67.51
58739;BME280;44512;53.046;18.604;2023-04-20T00:36:06;102124.04;;;10.69;67.40
58739;BME280;44512;53.046;18.604;2023-04-20T00:46:34;102137.08;;;10.74;67.28
58739;BME280;44512;53.046;18.604;2023-04-20T00:57:03;102114.24;;;10.76;67.12
58739;BME280;44512;53.046;18.604;2023-04-20T01:07:31;102113.88;;;10.79;67.03
58739;BME280;44512;53.046;18.604;2023-04-20T01:17:59;102122.72;;;10.81;66.99
58739;BME280;44512;53.046;18.604;2023-04-20T01:28:27;102126.09;;;10.83;66.98
58739;BME280;44512;53.046;18.604;2023-04-20T01:38:56;102117.79;;;10.85;66.91
58739;BME280;44512;53.046;18.604;2023-04-20T01:49:24;102120.35;;;10.86;66.89
58739;BME280;44512;53.046;18.604;2023-04-20T01:59:53;102120.35;;;10.86;66.87
58739;BME280;44512;53.046;18.604;2023-04-20T02:10:21;102118.63;;;10.85;66.72
58739;BME280;44512;53.046;18.604;2023-04-20T02:20:49;102124.05;;;10.85;66.62
58739;BME280;44512;53.046;18.604;2023-04-20T02:31:18;102130.34;;;10.86;66.47
58739;BME280;44512;53.046;18.604;2023-04-20T02:41:46;102132.17;;;10.85;66.35
58739;BME280;44512;53.046;18.604;2023-04-20T02:52:15;102134.89;;;10.85;66.28
58739;BME280;44512;53.046;18.604;2023-04-20T03:02:43;102134.21;;;10.83;66.21
58739;BME280;44512;53.046;18.604;2023-04-20T03:13:11;102132.53;;;10.82;66.35
58739;BME280;44512;53.046;18.604;2023-04-20T03:23:40;102143.02;;;10.77;66.03
58739;BME280;44512;53.046;18.604;2023-04-20T03:34:08;102156.21;;;10.72;66.06
58739;BME280;44512;53.046;18.604;2023-04-20T03:44:36;102165.68;;;10.68;66.03
58739;BME280;44512;53.046;18.604;2023-04-20T03:55:06;102157.20;;;10.63;66.07
58739;BME280;44512;53.046;18.604;2023-04-20T04:05:33;102159.25;;;10.61;66.05
58739;BME280;44512;53.046;18.604;2023-04-20T04:16:02;102167.68;;;10.58;66.04
58739;BME280;44512;53.046;18.604;2023-04-20T04:26:30;102168.02;;;10.55;66.07
58739;BME280;44512;53.046;18.604;2023-04-20T04:36:59;102172.74;;;10.53;66.05
58739;BME280;44512;53.046;18.604;2023-04-20T04:47:27;102181.04;;;10.51;66.13
58739;BME280;44512;53.046;18.604;2023-04-20T04:57:55;102191.02;;;10.51;66.25
58739;BME280;44512;53.046;18.604;2023-04-20T05:08:24;102205.06;;;10.54;66.33
58739;BME280;44512;53.046;18.604;2023-04-20T05:18:52;102203.89;;;10.57;66.37
58739;BME280;44512;53.046;18.604;2023-04-20T05:29:21;102209.84;;;10.60;66.59
58739;BME280;44512;53.046;18.604;2023-04-20T05:39:49;102226.94;;;10.69;66.78
58739;BME280;44512;53.046;18.604;2023-04-20T05:50:17;102218.84;;;10.77;66.80
58739;BME280;44512;53.046;18.604;2023-04-20T06:00:46;102227.68;;;10.87;66.76
58739;BME280;44512;53.046;18.604;2023-04-20T06:11:14;102232.95;;;10.97;66.49
58739;BME280;44512;53.046;18.604;2023-04-20T06:21:43;102243.47;;;11.08;66.11
58739;BME280;44512;53.046;18.604;2023-04-20T06:32:11;102251.45;;;11.18;65.80
58739;BME280;44512;53.046;18.604;2023-04-20T06:42:39;102255.17;;;11.25;65.33
58739;BME280;44512;53.046;18.604;2023-04-20T06:53:08;102261.29;;;11.35;65.52
58739;BME280;44512;53.046;18.604;2023-04-20T07:03:36;102263.84;;;11.45;65.57
58739;BME280;44512;53.046;18.604;2023-04-20T07:14:04;102258.91;;;11.57;65.63
58739;BME280;44512;53.046;18.604;2023-04-20T07:24:33;102262.99;;;11.69;65.58
58739;BME280;44512;53.046;18.604;2023-04-20T07:35:02;102277.05;;;11.81;65.12
58739;BME280;44512;53.046;18.604;2023-04-20T07:45:30;102291.14;;;11.92;64.42
58739;BME280;44512;53.046;18.604;2023-04-20T07:55:58;102298.45;;;12.00;63.15
58739;BME280;44512;53.046;18.604;2023-04-20T08:06:26;102300.10;;;12.09;62.32
58739;BME280;44512;53.046;18.604;2023-04-20T08:16:55;102308.76;;;12.21;62.37
58739;BME280;44512;53.046;18.604;2023-04-20T08:27:24;102301.60;;;12.36;61.79
58739;BME280;44512;53.046;18.604;2023-04-20T08:37:52;102303.41;;;12.52;61.21
58739;BME280;44512;53.046;18.604;2023-04-20T08:48:20;102296.22;;;12.67;60.92
58739;BME280;44512;53.046;18.604;2023-04-20T08:58:48;102304.48;;;12.82;61.17
58739;BME280;44512;53.046;18.604;2023-04-20T09:09:22;102304.03;;;13.01;61.26
58739;BME280;44512;53.046;18.604;2023-04-20T09:19:53;102292.70;;;13.21;61.00
58739;BME280;44512;53.046;18.604;2023-04-20T09:30:13;102307.87;;;13.46;62.16
58739;BME280;44512;53.046;18.604;2023-04-20T09:40:42;102300.55;;;13.70;62.50
58739;BME280;44512;53.046;18.604;2023-04-20T09:51:11;102310.85;;;13.97;62.12
58739;BME280;44512;53.046;18.604;2023-04-20T10:01:38;102297.73;;;14.16;61.90
58739;BME280;44512;53.046;18.604;2023-04-20T10:12:08;102299.27;;;14.33;60.86
58739;BME280;44512;53.046;18.604;2023-04-20T10:22:35;102294.11;;;14.68;58.72
58739;BME280;44512;53.046;18.604;2023-04-20T10:33:09;102281.98;;;14.85;58.75
58739;BME280;44512;53.046;18.604;2023-04-20T10:43:32;102276.30;;;15.01;57.98
58739;BME280;44512;53.046;18.604;2023-04-20T10:54:06;102263.94;;;15.20;57.60
58739;BME280;44512;53.046;18.604;2023-04-20T11:04:33;102257.05;;;15.46;55.80
58739;BME280;44512;53.046;18.604;2023-04-20T11:14:57;102257.89;;;15.68;52.10
58739;BME280;44512;53.046;18.604;2023-04-20T11:25:25;102255.93;;;15.83;51.66
58739;BME280;44512;53.046;18.604;2023-04-20T11:35:58;102230.59;;;15.96;51.59
58739;BME280;44512;53.046;18.604;2023-04-20T11:46:22;102246.07;;;16.17;49.30
58739;BME280;44512;53.046;18.604;2023-04-20T11:56:50;102244.30;;;16.37;49.24
58739;BME280;44512;53.046;18.604;2023-04-20T12:07:20;102229.28;;;16.61;44.79
58739;BME280;44512;53.046;18.604;2023-04-20T12:17:47;102229.20;;;16.89;43.32
58739;BME280;44512;53.046;18.604;2023-04-20T12:28:15;102214.33;;;17.11;41.82
58739;BME280;44512;53.046;18.604;2023-04-20T12:38:44;102212.84;;;17.15;43.15
58739;BME280;44512;53.046;18.604;2023-04-20T12:49:12;102202.95;;;17.21;44.34
58739;BME280;44512;53.046;18.604;2023-04-20T12:59:41;102196.27;;;17.37;42.73
58739;BME280;44512;53.046;18.604;2023-04-20T13:10:09;102186.55;;;17.41;42.68
58739;BME280;44512;53.046;18.604;2023-04-20T13:20:37;102186.98;;;17.51;40.88
58739;BME280;44512;53.046;18.604;2023-04-20T13:31:06;102181.73;;;17.76;37.90
58739;BME280;44512;53.046;18.604;2023-04-20T13:41:34;102194.10;;;17.99;33.64
58739;BME280;44512;53.046;18.604;2023-04-20T13:52:02;102193.05;;;18.06;34.74
58739;BME280;44512;53.046;18.604;2023-04-20T14:02:31;102187.34;;;18.08;34.53
58739;BME280;44512;53.046;18.604;2023-04-20T14:12:59;102196.19;;;18.16;33.16
58739;BME280;44512;53.046;18.604;2023-04-20T14:23:27;102197.84;;;18.31;32.96
58739;BME280;44512;53.046;18.604;2023-04-20T14:33:56;102193.13;;;18.51;33.46
58739;BME280;44512;53.046;18.604;2023-04-20T14:49:36;102187.83;;;18.56;33.34
58739;BME280;44512;53.046;18.604;2023-04-20T15:00:05;102187.64;;;18.51;33.39
58739;BME280;44512;53.046;18.604;2023-04-20T15:10:32;102185.54;;;18.46;34.21
58739;BME280;44512;53.046;18.604;2023-04-20T15:21:01;102190.11;;;18.59;34.53
58739;BME280;44512;53.046;18.604;2023-04-20T15:31:29;102176.46;;;18.91;34.50
58739;BME280;44512;53.046;18.604;2023-04-20T15:41:57;102175.25;;;19.18;34.78
58739;BME280;44512;53.046;18.604;2023-04-20T15:52:27;102168.02;;;19.49;34.64
58739;BME280;44512;53.046;18.604;2023-04-20T16:02:54;102172.14;;;19.65;33.68
58739;BME280;44512;53.046;18.604;2023-04-20T16:13:22;102171.74;;;19.61;33.17
58739;BME280;44512;53.046;18.604;2023-04-20T16:23:55;102165.41;;;19.61;32.89
58739;BME280;44512;53.046;18.604;2023-04-20T16:34:19;102170.47;;;19.57;32.73
58739;BME280;44512;53.046;18.604;2023-04-20T16:44:47;102164.64;;;19.47;33.12
58739;BME280;44512;53.046;18.604;2023-04-20T16:55:16;102182.93;;;19.35;33.95
58739;BME280;44512;53.046;18.604;2023-04-20T17:05:44;102184.70;;;19.22;34.55
58739;BME280;44512;53.046;18.604;2023-04-20T17:16:12;102188.16;;;19.11;34.71
58739;BME280;44512;53.046;18.604;2023-04-20T17:26:41;102183.98;;;19.02;34.94
58739;BME280;44512;53.046;18.604;2023-04-20T17:37:09;102193.57;;;18.93;35.38
58739;BME280;44512;53.046;18.604;2023-04-20T17:47:37;102201.02;;;18.79;35.99
58739;BME280;44512;53.046;18.604;2023-04-20T17:58:06;102205.70;;;18.65;36.29
58739;BME280;44512;53.046;18.604;2023-04-20T18:08:34;102211.48;;;18.51;36.69
58739;BME280;44512;53.046;18.604;2023-04-20T18:19:03;102217.65;;;18.33;37.07
58739;BME280;44512;53.046;18.604;2023-04-20T18:29:31;102223.59;;;18.16;37.41
58739;BME280;44512;53.046;18.604;2023-04-20T18:39:59;102226.57;;;18.02;37.62
58739;BME280;44512;53.046;18.604;2023-04-20T18:50:28;102223.23;;;17.86;37.77
58739;BME280;44512;53.046;18.604;2023-04-20T19:00:56;102226.98;;;17.72;37.98
58739;BME280;44512;53.046;18.604;2023-04-20T19:11:24;102236.90;;;17.60;38.07
58739;BME280;44512;53.046;18.604;2023-04-20T19:21:53;102236.69;;;17.48;38.51
58739;BME280;44512;53.046;18.604;2023-04-20T19:32:21;102241.08;;;17.36;39.32
58739;BME280;44512;53.046;18.604;2023-04-20T19:42:50;102236.01;;;17.19;40.04
58739;BME280;44512;53.046;18.604;2023-04-20T19:53:18;102251.13;;;17.02;40.64
58739;BME280;44512;53.046;18.604;2023-04-20T20:03:46;102255.93;;;16.87;41.32
58739;BME280;44512;53.046;18.604;2023-04-20T20:14:16;102255.23;;;16.72;42.42
58739;BME280;44512;53.046;18.604;2023-04-20T20:24:43;102263.32;;;16.58;43.40
58739;BME280;44512;53.046;18.604;2023-04-20T20:35:12;102259.48;;;16.46;44.11
58739;BME280;44512;53.046;18.604;2023-04-20T20:45:40;102264.86;;;16.33;44.76
58739;BME280;44512;53.046;18.604;2023-04-20T20:56:09;102270.91;;;16.22;45.09
58739;BME280;44512;53.046;18.604;2023-04-20T21:06:37;102263.05;;;16.12;45.36
58739;BME280;44512;53.046;18.604;2023-04-20T21:17:05;102268.90;;;16.02;45.57
58739;BME280;44512;53.046;18.604;2023-04-20T21:27:34;102264.16;;;15.89;45.84
58739;BME280;44512;53.046;18.604;2023-04-20T21:38:02;102265.75;;;15.77;46.20
58739;BME280;44512;53.046;18.604;2023-04-20T21:48:31;102272.77;;;15.65;46.44
58739;BME280;44512;53.046;18.604;2023-04-20T21:58:59;102275.16;;;15.53;46.63
58739;BME280;44512;53.046;18.604;2023-04-20T22:09:27;102270.60;;;15.39;46.77
58739;BME280;44512;53.046;18.604;2023-04-20T22:19:56;102274.90;;;15.27;46.73
58739;BME280;44512;53.046;18.604;2023-04-20T22:30:24;102268.45;;;15.13;46.81
58739;BME280;44512;53.046;18.604;2023-04-20T22:40:53;102270.47;;;15.04;46.55
58739;BME280;44512;53.046;18.604;2023-04-20T22:51:21;102276.23;;;14.95;46.46
58739;BME280;44512;53.046;18.604;2023-04-20T23:01:49;102277.10;;;14.80;46.50
58739;BME280;44512;53.046;18.604;2023-04-20T23:12:18;102285.56;;;14.71;46.50
58739;BME280;44512;53.046;18.604;2023-04-20T23:22:46;102282.00;;;14.55;46.60
58739;BME280;44512;53.046;18.604;2023-04-20T23:33:15;102281.81;;;14.42;46.79
58739;BME280;44512;53.046;18.604;2023-04-20T23:43:43;102274.83;;;14.25;47.04
58739;BME280;44512;53.046;18.604;2023-04-20T23:54:12;102272.77;;;14.12;47.14
